sensor_id;sensor_type;location;lat;lon;timestamp;P1;durP1;ratioP1;P2;durP2;ratioP2
35326;SDS011;21436;52.348;20.928;2023-10-31T00:01:31;102.20;;;34.72;;
35326;SDS011;21436;52.348;20.928;2023-10-31T00:03:59;73.35;;;29.25;;
35326;SDS011;21436;52.348;20.928;2023-10-31T00:06:27;62.17;;;25.75;;
35326;SDS011;21436;52.348;20.928;2023-10-31T00:08:55;72.80;;;28.33;;
35326;SDS011;21436;52.348;20.928;2023-10-31T00:11:23;37.45;;;19.60;;
35326;SDS011;21436;52.348;20.928;2023-10-31T00:13:51;48.78;;;21.30;;
35326;SDS011;21436;52.348;20.928;2023-10-31T00:16:19;62.90;;;25.95;;
35326;SDS011;21436;52.348;20.928;2023-10-31T00:18:47;77.75;;;29.17;;
35326;SDS011;21436;52.348;20.928;2023-10-31T00:21:15;38.20;;;19.10;;
35326;SDS011;21436;52.348;20.928;2023-10-31T00:23:46;50.08;;;22.83;;
35326;SDS011;21436;52.348;20.928;2023-10-31T00:26:15;46.60;;;21.67;;
35326;SDS011;21436;52.348;20.928;2023-10-31T00:28:50;51.72;;;20.83;;
35326;SDS011;21436;52.348;20.928;2023-10-31T00:31:18;49.63;;;22.25;;
35326;SDS011;21436;52.348;20.928;2023-10-31T00:33:46;60.10;;;25.45;;
35326;SDS011;21436;52.348;20.928;2023-10-31T00:36:14;62.78;;;24.55;;
35326;SDS011;21436;52.348;20.928;2023-10-31T00:38:41;42.38;;;19.85;;
35326;SDS011;21436;52.348;20.928;2023-10-31T00:41:10;36.75;;;18.35;;
35326;SDS011;21436;52.348;20.928;2023-10-31T00:43:37;37.78;;;17.30;;
35326;SDS011;21436;52.348;20.928;2023-10-31T00:46:05;40.75;;;18.77;;
35326;SDS011;21436;52.348;20.928;2023-10-31T00:48:33;34.75;;;18.10;;
35326;SDS011;21436;52.348;20.928;2023-10-31T00:51:04;28.48;;;15.82;;
35326;SDS011;21436;52.348;20.928;2023-10-31T00:53:32;32.20;;;16.15;;
35326;SDS011;21436;52.348;20.928;2023-10-31T00:56:01;41.60;;;18.48;;
35326;SDS011;21436;52.348;20.928;2023-10-31T00:58:30;27.95;;;15.43;;
35326;SDS011;21436;52.348;20.928;2023-10-31T01:00:58;35.08;;;17.08;;
35326;SDS011;21436;52.348;20.928;2023-10-31T01:03:26;35.00;;;18.52;;
35326;SDS011;21436;52.348;20.928;2023-10-31T01:05:54;35.70;;;17.52;;
35326;SDS011;21436;52.348;20.928;2023-10-31T01:08:22;34.55;;;16.70;;
35326;SDS011;21436;52.348;20.928;2023-10-31T01:10:50;27.77;;;15.73;;
35326;SDS011;21436;52.348;20.928;2023-10-31T01:13:18;31.58;;;17.35;;
35326;SDS011;21436;52.348;20.928;2023-10-31T01:15:46;37.50;;;17.15;;
35326;SDS011;21436;52.348;20.928;2023-10-31T01:18:15;30.00;;;16.25;;
35326;SDS011;21436;52.348;20.928;2023-10-31T01:20:43;29.65;;;15.98;;
35326;SDS011;21436;52.348;20.928;2023-10-31T01:23:11;28.02;;;14.80;;
35326;SDS011;21436;52.348;20.928;2023-10-31T01:25:39;23.92;;;15.00;;
35326;SDS011;21436;52.348;20.928;2023-10-31T01:28:07;31.30;;;15.35;;
35326;SDS011;21436;52.348;20.928;2023-10-31T01:30:35;25.30;;;14.57;;
35326;SDS011;21436;52.348;20.928;2023-10-31T01:33:04;27.60;;;13.95;;
35326;SDS011;21436;52.348;20.928;2023-10-31T01:35:32;26.95;;;14.02;;
35326;SDS011;21436;52.348;20.928;2023-10-31T01:38:00;29.23;;;13.88;;
35326;SDS011;21436;52.348;20.928;2023-10-31T01:40:28;27.67;;;14.30;;
35326;SDS011;21436;52.348;20.928;2023-10-31T01:42:56;21.20;;;11.98;;
35326;SDS011;21436;52.348;20.928;2023-10-31T01:45:24;23.60;;;12.75;;
35326;SDS011;21436;52.348;20.928;2023-10-31T01:47:53;36.83;;;13.90;;
35326;SDS011;21436;52.348;20.928;2023-10-31T01:50:21;31.77;;;13.13;;
35326;SDS011;21436;52.348;20.928;2023-10-31T01:52:49;28.40;;;13.55;;
35326;SDS011;21436;52.348;20.928;2023-10-31T01:55:17;24.25;;;12.85;;
35326;SDS011;21436;52.348;20.928;2023-10-31T01:57:46;23.58;;;12.75;;
35326;SDS011;21436;52.348;20.928;2023-10-31T02:00:15;28.65;;;12.60;;
35326;SDS011;21436;52.348;20.928;2023-10-31T02:02:43;19.60;;;11.38;;
35326;SDS011;21436;52.348;20.928;2023-10-31T02:05:12;23.45;;;11.80;;
35326;SDS011;21436;52.348;20.928;2023-10-31T02:07:41;24.75;;;12.50;;
35326;SDS011;21436;52.348;20.928;2023-10-31T02:10:12;28.63;;;12.35;;
35326;SDS011;21436;52.348;20.928;2023-10-31T02:12:40;18.48;;;11.35;;
35326;SDS011;21436;52.348;20.928;2023-10-31T02:15:10;24.58;;;11.25;;
35326;SDS011;21436;52.348;20.928;2023-10-31T02:17:39;23.23;;;12.23;;
35326;SDS011;21436;52.348;20.928;2023-10-31T02:20:07;22.55;;;11.20;;
35326;SDS011;21436;52.348;20.928;2023-10-31T02:22:35;24.60;;;11.48;;
35326;SDS011;21436;52.348;20.928;2023-10-31T02:25:15;25.23;;;11.80;;
35326;SDS011;21436;52.348;20.928;2023-10-31T02:27:44;28.75;;;11.30;;
35326;SDS011;21436;52.348;20.928;2023-10-31T02:30:13;22.17;;;10.88;;
35326;SDS011;21436;52.348;20.928;2023-10-31T02:32:41;22.42;;;11.38;;
35326;SDS011;21436;52.348;20.928;2023-10-31T02:35:10;20.85;;;11.35;;
35326;SDS011;21436;52.348;20.928;2023-10-31T02:37:38;22.55;;;10.93;;
35326;SDS011;21436;52.348;20.928;2023-10-31T02:40:07;24.13;;;11.35;;
35326;SDS011;21436;52.348;20.928;2023-10-31T02:42:35;22.02;;;10.60;;
35326;SDS011;21436;52.348;20.928;2023-10-31T02:45:03;20.55;;;11.05;;
35326;SDS011;21436;52.348;20.928;2023-10-31T02:47:32;26.67;;;10.90;;
35326;SDS011;21436;52.348;20.928;2023-10-31T02:50:00;20.15;;;10.07;;
35326;SDS011;21436;52.348;20.928;2023-10-31T02:52:28;16.45;;;9.25;;
35326;SDS011;21436;52.348;20.928;2023-10-31T02:54:57;21.63;;;9.60;;
35326;SDS011;21436;52.348;20.928;2023-10-31T02:57:24;22.85;;;10.25;;
35326;SDS011;21436;52.348;20.928;2023-10-31T02:59:52;15.52;;;9.98;;
35326;SDS011;21436;52.348;20.928;2023-10-31T03:02:20;17.60;;;9.27;;
35326;SDS011;21436;52.348;20.928;2023-10-31T03:04:50;19.73;;;9.52;;
35326;SDS011;21436;52.348;20.928;2023-10-31T03:07:17;14.80;;;8.60;;
35326;SDS011;21436;52.348;20.928;2023-10-31T03:09:48;16.83;;;9.35;;
35326;SDS011;21436;52.348;20.928;2023-10-31T03:12:16;19.02;;;9.85;;
35326;SDS011;21436;52.348;20.928;2023-10-31T03:14:44;21.92;;;8.82;;
35326;SDS011;21436;52.348;20.928;2023-10-31T03:17:13;17.42;;;9.25;;
35326;SDS011;21436;52.348;20.928;2023-10-31T03:19:41;14.85;;;8.35;;
35326;SDS011;21436;52.348;20.928;2023-10-31T03:22:09;18.00;;;8.95;;
35326;SDS011;21436;52.348;20.928;2023-10-31T03:24:37;14.40;;;9.05;;
35326;SDS011;21436;52.348;20.928;2023-10-31T03:27:05;19.30;;;9.50;;
35326;SDS011;21436;52.348;20.928;2023-10-31T03:29:34;17.00;;;8.95;;
35326;SDS011;21436;52.348;20.928;2023-10-31T03:32:01;15.05;;;8.48;;
35326;SDS011;21436;52.348;20.928;2023-10-31T03:34:30;19.15;;;8.85;;
35326;SDS011;21436;52.348;20.928;2023-10-31T03:36:58;18.10;;;8.30;;
35326;SDS011;21436;52.348;20.928;2023-10-31T03:39:27;18.40;;;8.98;;
35326;SDS011;21436;52.348;20.928;2023-10-31T03:41:55;18.25;;;8.35;;
35326;SDS011;21436;52.348;20.928;2023-10-31T03:44:24;14.57;;;7.85;;
35326;SDS011;21436;52.348;20.928;2023-10-31T03:46:51;13.68;;;7.63;;
35326;SDS011;21436;52.348;20.928;2023-10-31T03:49:19;15.90;;;7.75;;
35326;SDS011;21436;52.348;20.928;2023-10-31T03:51:47;16.85;;;7.78;;
35326;SDS011;21436;52.348;20.928;2023-10-31T03:54:16;16.85;;;7.68;;
35326;SDS011;21436;52.348;20.928;2023-10-31T03:56:45;12.93;;;7.63;;
35326;SDS011;21436;52.348;20.928;2023-10-31T03:59:14;15.25;;;6.55;;
35326;SDS011;21436;52.348;20.928;2023-10-31T04:01:41;16.65;;;8.15;;
35326;SDS011;21436;52.348;20.928;2023-10-31T04:04:09;14.65;;;7.72;;
35326;SDS011;21436;52.348;20.928;2023-10-31T04:06:36;15.82;;;7.68;;
35326;SDS011;21436;52.348;20.928;2023-10-31T04:09:09;17.30;;;7.65;;
35326;SDS011;21436;52.348;20.928;2023-10-31T04:11:37;15.07;;;7.13;;
35326;SDS011;21436;52.348;20.928;2023-10-31T04:14:06;16.70;;;7.60;;
35326;SDS011;21436;52.348;20.928;2023-10-31T04:16:38;14.25;;;7.40;;
35326;SDS011;21436;52.348;20.928;2023-10-31T04:19:07;18.30;;;7.03;;
35326;SDS011;21436;52.348;20.928;2023-10-31T04:21:35;12.07;;;7.00;;
35326;SDS011;21436;52.348;20.928;2023-10-31T04:24:05;15.38;;;7.53;;
35326;SDS011;21436;52.348;20.928;2023-10-31T04:26:33;13.25;;;7.03;;
35326;SDS011;21436;52.348;20.928;2023-10-31T04:29:01;12.48;;;6.85;;
35326;SDS011;21436;52.348;20.928;2023-10-31T04:31:29;13.45;;;6.25;;
35326;SDS011;21436;52.348;20.928;2023-10-31T04:34:10;10.57;;;5.70;;
35326;SDS011;21436;52.348;20.928;2023-10-31T04:36:38;13.55;;;7.03;;
35326;SDS011;21436;52.348;20.928;2023-10-31T04:39:06;12.73;;;6.05;;
35326;SDS011;21436;52.348;20.928;2023-10-31T04:41:34;10.68;;;5.75;;
35326;SDS011;21436;52.348;20.928;2023-10-31T04:44:03;13.95;;;5.90;;
35326;SDS011;21436;52.348;20.928;2023-10-31T04:46:31;8.95;;;5.30;;
35326;SDS011;21436;52.348;20.928;2023-10-31T04:48:58;19.98;;;5.32;;
35326;SDS011;21436;52.348;20.928;2023-10-31T04:51:26;11.57;;;5.35;;
35326;SDS011;21436;52.348;20.928;2023-10-31T04:53:54;10.38;;;5.15;;
35326;SDS011;21436;52.348;20.928;2023-10-31T04:56:22;21.63;;;5.93;;
35326;SDS011;21436;52.348;20.928;2023-10-31T04:58:50;9.07;;;4.93;;
35326;SDS011;21436;52.348;20.928;2023-10-31T05:01:18;11.07;;;5.18;;
35326;SDS011;21436;52.348;20.928;2023-10-31T05:03:47;9.27;;;5.20;;
35326;SDS011;21436;52.348;20.928;2023-10-31T05:06:24;9.43;;;4.95;;
35326;SDS011;21436;52.348;20.928;2023-10-31T05:08:52;10.23;;;4.75;;
35326;SDS011;21436;52.348;20.928;2023-10-31T05:11:20;8.45;;;5.15;;
35326;SDS011;21436;52.348;20.928;2023-10-31T05:13:48;13.20;;;5.40;;
35326;SDS011;21436;52.348;20.928;2023-10-31T05:16:16;10.50;;;4.68;;
35326;SDS011;21436;52.348;20.928;2023-10-31T05:18:44;11.57;;;4.88;;
35326;SDS011;21436;52.348;20.928;2023-10-31T05:21:12;11.93;;;5.38;;
35326;SDS011;21436;52.348;20.928;2023-10-31T05:23:40;9.48;;;4.70;;
35326;SDS011;21436;52.348;20.928;2023-10-31T05:26:08;10.45;;;5.60;;
35326;SDS011;21436;52.348;20.928;2023-10-31T05:28:36;14.82;;;5.15;;
35326;SDS011;21436;52.348;20.928;2023-10-31T05:31:04;12.13;;;4.80;;
35326;SDS011;21436;52.348;20.928;2023-10-31T05:33:32;17.73;;;5.60;;
35326;SDS011;21436;52.348;20.928;2023-10-31T05:36:00;11.98;;;4.65;;
35326;SDS011;21436;52.348;20.928;2023-10-31T05:38:29;11.65;;;5.18;;
35326;SDS011;21436;52.348;20.928;2023-10-31T05:40:57;10.45;;;4.78;;
35326;SDS011;21436;52.348;20.928;2023-10-31T05:43:25;11.75;;;5.80;;
35326;SDS011;21436;52.348;20.928;2023-10-31T05:45:53;14.10;;;4.55;;
35326;SDS011;21436;52.348;20.928;2023-10-31T05:48:21;10.23;;;4.72;;
35326;SDS011;21436;52.348;20.928;2023-10-31T05:50:49;12.35;;;4.82;;
35326;SDS011;21436;52.348;20.928;2023-10-31T05:53:17;10.02;;;4.38;;
35326;SDS011;21436;52.348;20.928;2023-10-31T05:55:44;8.57;;;4.55;;
35326;SDS011;21436;52.348;20.928;2023-10-31T05:58:13;9.27;;;5.00;;
35326;SDS011;21436;52.348;20.928;2023-10-31T06:00:44;10.40;;;4.65;;
35326;SDS011;21436;52.348;20.928;2023-10-31T06:03:12;8.18;;;4.43;;
35326;SDS011;21436;52.348;20.928;2023-10-31T06:05:40;9.52;;;4.15;;
35326;SDS011;21436;52.348;20.928;2023-10-31T06:08:08;8.20;;;4.35;;
35326;SDS011;21436;52.348;20.928;2023-10-31T06:10:36;9.98;;;4.28;;
35326;SDS011;21436;52.348;20.928;2023-10-31T06:13:04;8.15;;;4.30;;
35326;SDS011;21436;52.348;20.928;2023-10-31T06:15:32;9.07;;;4.00;;
35326;SDS011;21436;52.348;20.928;2023-10-31T06:18:00;10.35;;;4.78;;
35326;SDS011;21436;52.348;20.928;2023-10-31T06:20:28;16.42;;;3.95;;
35326;SDS011;21436;52.348;20.928;2023-10-31T06:22:56;8.63;;;4.40;;
35326;SDS011;21436;52.348;20.928;2023-10-31T06:25:26;7.68;;;3.92;;
35326;SDS011;21436;52.348;20.928;2023-10-31T06:27:55;13.10;;;4.13;;
35326;SDS011;21436;52.348;20.928;2023-10-31T06:30:23;10.30;;;4.32;;
35326;SDS011;21436;52.348;20.928;2023-10-31T06:32:55;6.85;;;4.25;;
35326;SDS011;21436;52.348;20.928;2023-10-31T06:35:23;9.55;;;4.35;;
35326;SDS011;21436;52.348;20.928;2023-10-31T06:37:56;7.05;;;4.45;;
35326;SDS011;21436;52.348;20.928;2023-10-31T06:40:26;11.43;;;4.45;;
35326;SDS011;21436;52.348;20.928;2023-10-31T06:42:55;12.55;;;4.43;;
35326;SDS011;21436;52.348;20.928;2023-10-31T06:45:22;17.70;;;4.00;;
35326;SDS011;21436;52.348;20.928;2023-10-31T06:47:51;11.77;;;4.45;;
35326;SDS011;21436;52.348;20.928;2023-10-31T06:50:19;9.82;;;4.07;;
35326;SDS011;21436;52.348;20.928;2023-10-31T06:52:47;10.15;;;3.80;;
35326;SDS011;21436;52.348;20.928;2023-10-31T06:55:15;9.13;;;4.07;;
35326;SDS011;21436;52.348;20.928;2023-10-31T06:57:44;10.35;;;4.13;;
35326;SDS011;21436;52.348;20.928;2023-10-31T07:00:12;9.15;;;3.78;;
35326;SDS011;21436;52.348;20.928;2023-10-31T07:02:41;12.77;;;4.07;;
35326;SDS011;21436;52.348;20.928;2023-10-31T07:05:09;10.05;;;3.95;;
35326;SDS011;21436;52.348;20.928;2023-10-31T07:07:38;6.80;;;4.00;;
35326;SDS011;21436;52.348;20.928;2023-10-31T07:10:05;8.05;;;4.10;;
35326;SDS011;21436;52.348;20.928;2023-10-31T07:12:34;9.35;;;4.70;;
35326;SDS011;21436;52.348;20.928;2023-10-31T07:15:04;10.20;;;3.80;;
35326;SDS011;21436;52.348;20.928;2023-10-31T07:17:32;9.27;;;4.07;;
35326;SDS011;21436;52.348;20.928;2023-10-31T07:20:00;12.90;;;4.63;;
35326;SDS011;21436;52.348;20.928;2023-10-31T07:22:29;9.20;;;4.22;;
35326;SDS011;21436;52.348;20.928;2023-10-31T07:24:56;7.20;;;3.97;;
35326;SDS011;21436;52.348;20.928;2023-10-31T07:27:26;8.60;;;4.55;;
35326;SDS011;21436;52.348;20.928;2023-10-31T07:29:54;9.07;;;4.07;;
35326;SDS011;21436;52.348;20.928;2023-10-31T07:32:22;7.40;;;4.10;;
35326;SDS011;21436;52.348;20.928;2023-10-31T07:34:51;10.60;;;4.82;;
35326;SDS011;21436;52.348;20.928;2023-10-31T07:37:20;13.77;;;4.85;;
35326;SDS011;21436;52.348;20.928;2023-10-31T07:39:48;11.02;;;4.30;;
35326;SDS011;21436;52.348;20.928;2023-10-31T07:42:18;8.10;;;4.20;;
35326;SDS011;21436;52.348;20.928;2023-10-31T07:44:46;8.52;;;4.18;;
35326;SDS011;21436;52.348;20.928;2023-10-31T07:47:15;16.27;;;4.95;;
35326;SDS011;21436;52.348;20.928;2023-10-31T07:49:43;8.85;;;4.60;;
35326;SDS011;21436;52.348;20.928;2023-10-31T07:52:11;11.20;;;4.07;;
35326;SDS011;21436;52.348;20.928;2023-10-31T07:54:39;9.23;;;4.03;;
35326;SDS011;21436;52.348;20.928;2023-10-31T07:57:09;7.50;;;3.88;;
35326;SDS011;21436;52.348;20.928;2023-10-31T07:59:37;12.63;;;7.05;;
35326;SDS011;21436;52.348;20.928;2023-10-31T08:02:05;7.65;;;4.53;;
35326;SDS011;21436;52.348;20.928;2023-10-31T08:04:33;11.30;;;5.03;;
35326;SDS011;21436;52.348;20.928;2023-10-31T08:07:02;8.75;;;4.47;;
35326;SDS011;21436;52.348;20.928;2023-10-31T08:09:30;10.55;;;4.97;;
35326;SDS011;21436;52.348;20.928;2023-10-31T08:11:58;7.70;;;4.55;;
35326;SDS011;21436;52.348;20.928;2023-10-31T08:14:26;13.85;;;4.90;;
35326;SDS011;21436;52.348;20.928;2023-10-31T08:16:54;7.68;;;4.55;;
35326;SDS011;21436;52.348;20.928;2023-10-31T08:19:23;10.05;;;4.32;;
35326;SDS011;21436;52.348;20.928;2023-10-31T08:21:51;11.38;;;4.28;;
35326;SDS011;21436;52.348;20.928;2023-10-31T08:24:18;8.38;;;3.78;;
35326;SDS011;21436;52.348;20.928;2023-10-31T08:26:46;8.10;;;3.67;;
35326;SDS011;21436;52.348;20.928;2023-10-31T08:29:14;8.50;;;3.88;;
35326;SDS011;21436;52.348;20.928;2023-10-31T08:31:42;15.55;;;3.97;;
35326;SDS011;21436;52.348;20.928;2023-10-31T08:34:10;8.43;;;3.65;;
35326;SDS011;21436;52.348;20.928;2023-10-31T08:36:39;7.22;;;3.85;;
35326;SDS011;21436;52.348;20.928;2023-10-31T08:39:06;8.82;;;3.45;;
35326;SDS011;21436;52.348;20.928;2023-10-31T08:42:00;7.50;;;3.67;;
35326;SDS011;21436;52.348;20.928;2023-10-31T08:44:28;6.78;;;3.45;;
35326;SDS011;21436;52.348;20.928;2023-10-31T08:46:56;8.23;;;4.32;;
35326;SDS011;21436;52.348;20.928;2023-10-31T08:49:24;9.55;;;4.07;;
35326;SDS011;21436;52.348;20.928;2023-10-31T08:51:52;9.60;;;4.05;;
35326;SDS011;21436;52.348;20.928;2023-10-31T08:54:20;6.78;;;3.88;;
35326;SDS011;21436;52.348;20.928;2023-10-31T08:56:49;11.45;;;3.33;;
35326;SDS011;21436;52.348;20.928;2023-10-31T08:59:17;8.95;;;3.60;;
35326;SDS011;21436;52.348;20.928;2023-10-31T09:01:45;6.38;;;3.35;;
35326;SDS011;21436;52.348;20.928;2023-10-31T09:04:13;14.25;;;3.58;;
35326;SDS011;21436;52.348;20.928;2023-10-31T09:06:42;8.88;;;3.97;;
35326;SDS011;21436;52.348;20.928;2023-10-31T09:09:10;9.35;;;3.28;;
35326;SDS011;21436;52.348;20.928;2023-10-31T09:11:38;10.23;;;3.70;;
35326;SDS011;21436;52.348;20.928;2023-10-31T09:14:06;8.05;;;3.33;;
35326;SDS011;21436;52.348;20.928;2023-10-31T09:16:34;8.45;;;3.33;;
35326;SDS011;21436;52.348;20.928;2023-10-31T09:19:02;8.60;;;3.60;;
35326;SDS011;21436;52.348;20.928;2023-10-31T09:21:31;10.68;;;3.60;;
35326;SDS011;21436;52.348;20.928;2023-10-31T09:23:59;9.52;;;3.47;;
35326;SDS011;21436;52.348;20.928;2023-10-31T09:26:27;8.82;;;3.17;;
35326;SDS011;21436;52.348;20.928;2023-10-31T09:28:55;9.10;;;3.72;;
35326;SDS011;21436;52.348;20.928;2023-10-31T09:31:23;7.63;;;2.88;;
35326;SDS011;21436;52.348;20.928;2023-10-31T09:33:51;12.07;;;3.10;;
35326;SDS011;21436;52.348;20.928;2023-10-31T09:36:20;8.73;;;3.40;;
35326;SDS011;21436;52.348;20.928;2023-10-31T09:38:48;7.70;;;3.50;;
35326;SDS011;21436;52.348;20.928;2023-10-31T09:41:16;5.43;;;3.42;;
35326;SDS011;21436;52.348;20.928;2023-10-31T09:43:45;12.02;;;3.75;;
35326;SDS011;21436;52.348;20.928;2023-10-31T09:46:13;9.00;;;3.97;;
35326;SDS011;21436;52.348;20.928;2023-10-31T09:48:42;5.45;;;3.63;;
35326;SDS011;21436;52.348;20.928;2023-10-31T09:51:12;9.45;;;4.18;;
35326;SDS011;21436;52.348;20.928;2023-10-31T09:53:41;9.02;;;3.95;;
35326;SDS011;21436;52.348;20.928;2023-10-31T09:56:12;8.88;;;3.80;;
35326;SDS011;21436;52.348;20.928;2023-10-31T09:58:40;8.10;;;4.32;;
35326;SDS011;21436;52.348;20.928;2023-10-31T10:01:09;10.48;;;4.13;;
35326;SDS011;21436;52.348;20.928;2023-10-31T10:03:38;13.88;;;4.82;;
35326;SDS011;21436;52.348;20.928;2023-10-31T10:06:09;8.27;;;3.38;;
35326;SDS011;21436;52.348;20.928;2023-10-31T10:08:39;8.82;;;4.20;;
35326;SDS011;21436;52.348;20.928;2023-10-31T10:11:07;9.52;;;3.60;;
35326;SDS011;21436;52.348;20.928;2023-10-31T10:13:35;6.43;;;4.15;;
35326;SDS011;21436;52.348;20.928;2023-10-31T10:16:04;13.45;;;4.63;;
35326;SDS011;21436;52.348;20.928;2023-10-31T10:18:33;12.32;;;3.95;;
35326;SDS011;21436;52.348;20.928;2023-10-31T10:21:05;10.40;;;3.88;;
35326;SDS011;21436;52.348;20.928;2023-10-31T10:23:35;10.55;;;3.97;;
35326;SDS011;21436;52.348;20.928;2023-10-31T10:26:03;7.93;;;3.78;;
35326;SDS011;21436;52.348;20.928;2023-10-31T10:28:32;10.88;;;4.07;;
35326;SDS011;21436;52.348;20.928;2023-10-31T10:31:00;11.55;;;4.07;;
35326;SDS011;21436;52.348;20.928;2023-10-31T10:33:28;7.45;;;3.85;;
35326;SDS011;21436;52.348;20.928;2023-10-31T10:35:56;8.55;;;3.95;;
35326;SDS011;21436;52.348;20.928;2023-10-31T10:38:25;8.15;;;4.00;;
35326;SDS011;21436;52.348;20.928;2023-10-31T10:40:53;6.07;;;3.78;;
35326;SDS011;21436;52.348;20.928;2023-10-31T10:43:23;9.35;;;4.05;;
35326;SDS011;21436;52.348;20.928;2023-10-31T10:45:53;10.40;;;3.58;;
35326;SDS011;21436;52.348;20.928;2023-10-31T10:48:26;8.65;;;3.92;;
35326;SDS011;21436;52.348;20.928;2023-10-31T10:51:06;6.88;;;3.50;;
35326;SDS011;21436;52.348;20.928;2023-10-31T10:53:49;12.57;;;3.50;;
35326;SDS011;21436;52.348;20.928;2023-10-31T10:56:28;7.47;;;3.40;;
35326;SDS011;21436;52.348;20.928;2023-10-31T10:59:01;7.32;;;3.35;;
35326;SDS011;21436;52.348;20.928;2023-10-31T11:01:31;6.80;;;3.80;;
35326;SDS011;21436;52.348;20.928;2023-10-31T11:04:01;11.45;;;3.78;;
35326;SDS011;21436;52.348;20.928;2023-10-31T11:06:30;4.75;;;2.60;;
35326;SDS011;21436;52.348;20.928;2023-10-31T11:08:59;6.10;;;2.50;;
35326;SDS011;21436;52.348;20.928;2023-10-31T11:11:28;7.10;;;3.20;;
35326;SDS011;21436;52.348;20.928;2023-10-31T11:13:56;6.07;;;2.80;;
35326;SDS011;21436;52.348;20.928;2023-10-31T11:16:34;6.68;;;3.13;;
35326;SDS011;21436;52.348;20.928;2023-10-31T11:19:08;8.50;;;2.97;;
35326;SDS011;21436;52.348;20.928;2023-10-31T11:21:52;5.15;;;2.83;;
35326;SDS011;21436;52.348;20.928;2023-10-31T11:24:33;9.90;;;3.08;;
35326;SDS011;21436;52.348;20.928;2023-10-31T11:27:03;11.32;;;3.83;;
35326;SDS011;21436;52.348;20.928;2023-10-31T11:29:33;6.57;;;2.80;;
35326;SDS011;21436;52.348;20.928;2023-10-31T11:32:07;6.97;;;2.75;;
35326;SDS011;21436;52.348;20.928;2023-10-31T11:34:38;9.20;;;2.70;;
35326;SDS011;21436;52.348;20.928;2023-10-31T11:42:56;5.43;;;3.13;;
35326;SDS011;21436;52.348;20.928;2023-10-31T11:45:26;5.43;;;2.92;;
35326;SDS011;21436;52.348;20.928;2023-10-31T11:48:08;4.30;;;2.67;;
35326;SDS011;21436;52.348;20.928;2023-10-31T11:50:40;6.00;;;2.45;;
35326;SDS011;21436;52.348;20.928;2023-10-31T11:53:10;4.50;;;2.40;;
35326;SDS011;21436;52.348;20.928;2023-10-31T11:55:40;7.22;;;3.20;;
35326;SDS011;21436;52.348;20.928;2023-10-31T12:00:51;5.45;;;2.78;;
35326;SDS011;21436;52.348;20.928;2023-10-31T12:03:21;6.47;;;2.72;;
35326;SDS011;21436;52.348;20.928;2023-10-31T12:05:53;5.35;;;3.00;;
35326;SDS011;21436;52.348;20.928;2023-10-31T12:08:58;8.77;;;2.70;;
35326;SDS011;21436;52.348;20.928;2023-10-31T12:11:21;6.25;;;3.13;;
35326;SDS011;21436;52.348;20.928;2023-10-31T12:13:52;11.30;;;3.00;;
35326;SDS011;21436;52.348;20.928;2023-10-31T12:16:28;5.68;;;2.90;;
35326;SDS011;21436;52.348;20.928;2023-10-31T12:18:59;3.17;;;2.40;;
35326;SDS011;21436;52.348;20.928;2023-10-31T12:21:36;4.30;;;2.50;;
35326;SDS011;21436;52.348;20.928;2023-10-31T12:24:05;6.40;;;3.00;;
35326;SDS011;21436;52.348;20.928;2023-10-31T12:26:34;6.40;;;2.97;;
35326;SDS011;21436;52.348;20.928;2023-10-31T12:31:48;10.82;;;2.70;;
35326;SDS011;21436;52.348;20.928;2023-10-31T12:34:19;4.88;;;3.15;;
35326;SDS011;21436;52.348;20.928;2023-10-31T12:36:49;4.20;;;2.58;;
35326;SDS011;21436;52.348;20.928;2023-10-31T12:39:21;3.58;;;2.85;;
35326;SDS011;21436;52.348;20.928;2023-10-31T12:41:50;4.78;;;2.42;;
35326;SDS011;21436;52.348;20.928;2023-10-31T12:44:25;7.63;;;2.92;;
35326;SDS011;21436;52.348;20.928;2023-10-31T12:46:56;6.45;;;2.58;;
35326;SDS011;21436;52.348;20.928;2023-10-31T12:49:24;4.72;;;2.40;;
35326;SDS011;21436;52.348;20.928;2023-10-31T12:52:04;3.58;;;2.42;;
35326;SDS011;21436;52.348;20.928;2023-10-31T12:54:33;4.70;;;2.40;;
35326;SDS011;21436;52.348;20.928;2023-10-31T12:57:08;4.18;;;2.22;;
35326;SDS011;21436;52.348;20.928;2023-10-31T12:59:41;3.45;;;2.30;;
35326;SDS011;21436;52.348;20.928;2023-10-31T13:02:09;4.32;;;2.20;;
35326;SDS011;21436;52.348;20.928;2023-10-31T13:04:40;4.93;;;2.13;;
35326;SDS011;21436;52.348;20.928;2023-10-31T13:07:08;6.47;;;2.03;;
35326;SDS011;21436;52.348;20.928;2023-10-31T13:09:36;5.18;;;1.80;;
35326;SDS011;21436;52.348;20.928;2023-10-31T13:12:10;5.82;;;1.92;;
35326;SDS011;21436;52.348;20.928;2023-10-31T13:14:41;3.08;;;1.77;;
35326;SDS011;21436;52.348;20.928;2023-10-31T13:17:09;2.80;;;1.95;;
35326;SDS011;21436;52.348;20.928;2023-10-31T13:19:38;2.03;;;1.60;;
35326;SDS011;21436;52.348;20.928;2023-10-31T13:22:05;6.82;;;2.08;;
35326;SDS011;21436;52.348;20.928;2023-10-31T13:24:34;2.58;;;1.70;;
35326;SDS011;21436;52.348;20.928;2023-10-31T13:27:02;3.58;;;2.00;;
35326;SDS011;21436;52.348;20.928;2023-10-31T13:29:31;3.08;;;2.30;;
35326;SDS011;21436;52.348;20.928;2023-10-31T13:32:01;5.22;;;2.10;;
35326;SDS011;21436;52.348;20.928;2023-10-31T13:34:28;2.35;;;1.90;;
35326;SDS011;21436;52.348;20.928;2023-10-31T13:37:00;2.92;;;2.35;;
35326;SDS011;21436;52.348;20.928;2023-10-31T13:39:28;5.38;;;2.28;;
35326;SDS011;21436;52.348;20.928;2023-10-31T13:41:56;2.65;;;2.05;;
35326;SDS011;21436;52.348;20.928;2023-10-31T13:44:25;5.57;;;2.10;;
35326;SDS011;21436;52.348;20.928;2023-10-31T13:46:53;3.40;;;2.08;;
35326;SDS011;21436;52.348;20.928;2023-10-31T13:49:21;4.03;;;1.88;;
35326;SDS011;21436;52.348;20.928;2023-10-31T13:51:49;3.03;;;2.15;;
35326;SDS011;21436;52.348;20.928;2023-10-31T13:54:18;5.40;;;2.85;;
35326;SDS011;21436;52.348;20.928;2023-10-31T13:56:47;3.35;;;2.10;;
35326;SDS011;21436;52.348;20.928;2023-10-31T13:59:16;4.75;;;2.50;;
35326;SDS011;21436;52.348;20.928;2023-10-31T14:01:45;2.00;;;1.80;;
35326;SDS011;21436;52.348;20.928;2023-10-31T14:04:14;2.88;;;2.30;;
35326;SDS011;21436;52.348;20.928;2023-10-31T14:06:43;2.78;;;2.00;;
35326;SDS011;21436;52.348;20.928;2023-10-31T14:09:12;3.60;;;2.35;;
35326;SDS011;21436;52.348;20.928;2023-10-31T14:11:40;5.10;;;1.98;;
35326;SDS011;21436;52.348;20.928;2023-10-31T14:14:09;2.40;;;1.83;;
35326;SDS011;21436;52.348;20.928;2023-10-31T14:16:37;4.43;;;2.03;;
35326;SDS011;21436;52.348;20.928;2023-10-31T14:19:06;4.40;;;2.00;;
35326;SDS011;21436;52.348;20.928;2023-10-31T14:21:35;1.95;;;1.42;;
35326;SDS011;21436;52.348;20.928;2023-10-31T14:24:03;2.20;;;1.30;;
35326;SDS011;21436;52.348;20.928;2023-10-31T14:26:39;5.53;;;1.75;;
35326;SDS011;21436;52.348;20.928;2023-10-31T14:29:11;2.30;;;1.70;;
35326;SDS011;21436;52.348;20.928;2023-10-31T14:31:40;2.75;;;1.92;;
35326;SDS011;21436;52.348;20.928;2023-10-31T14:34:11;3.83;;;1.63;;
35326;SDS011;21436;52.348;20.928;2023-10-31T14:36:39;2.83;;;1.40;;
35326;SDS011;21436;52.348;20.928;2023-10-31T14:39:08;1.77;;;1.40;;
35326;SDS011;21436;52.348;20.928;2023-10-31T14:41:37;1.63;;;1.45;;
35326;SDS011;21436;52.348;20.928;2023-10-31T14:44:05;2.20;;;1.63;;
35326;SDS011;21436;52.348;20.928;2023-10-31T14:46:33;2.85;;;1.38;;
35326;SDS011;21436;52.348;20.928;2023-10-31T14:49:02;5.95;;;1.60;;